This is the latest recevied weather packets stored in our database for station/object W4CAT-13. If no packets are shown the sender has not sent any weather packets the latest 10 day(s).
| Time | Temp. | Humidity | Pressure | Rain* | Wind** | Luminosity | Snow |
|---|---|---|---|---|---|---|---|
| 1778184336 | 18.33° C | 44% | 977.6 hPa | 0 mm | - | - | - |
| 1778183405 | 17.78° C | 43% | 977.8 hPa | 0 mm | - | - | - |
| 1778182505 | 18.33° C | 47% | 978 hPa | 0 mm | - | - | - |
| 1778121772 | 10.56° C | 98% | 977.6 hPa | 0.25 mm | - | - | - |
| 1778120842 | 11.11° C | 98% | 977.6 hPa | 0.76 mm | - | - | - |
| 1778119913 | 10.56° C | 98% | 977.6 hPa | 0.76 mm | - | - | - |
| 1778118982 | 11.11° C | 98% | 977.3 hPa | 0.76 mm | - | - | - |
| 1778118052 | 11.11° C | 98% | 978.3 hPa | 0.51 mm | - | - | - |
| 1778117122 | 11.11° C | 98% | 978.7 hPa | 0 mm | - | - | - |
| 1778116193 | 11.11° C | 98% | 977 hPa | 0 mm | - | - | - |
| 1778115262 | 11.11° C | 97% | 976.6 hPa | 0.25 mm | - | - | - |
| 1778114332 | 11.11° C | 97% | 976.6 hPa | 0.51 mm | - | - | - |
| 1778113402 | 11.67° C | 97% | 976.3 hPa | 0.76 mm | - | - | - |
| 1778112472 | 11.67° C | 97% | 975.4 hPa | 1.02 mm | - | - | - |
| 1778111542 | 11.67° C | 96% | 976 hPa | 1.02 mm | - | - | - |
| 1778110612 | 12.22° C | 95% | 976.9 hPa | 1.02 mm | - | - | - |
| 1778109682 | 12.22° C | 95% | 977 hPa | 0.76 mm | - | - | - |
| 1778108752 | 12.78° C | 93% | 977.6 hPa | 0.51 mm | - | - | - |
| 1778107860 | 12.78° C | 91% | 977.2 hPa | 0.25 mm | - | - | - |
| 1778107822 | 12.78° C | 91% | 977.2 hPa | 0.25 mm | - | - | - |
| 1778106892 | 13.33° C | 89% | 977.3 hPa | 0 mm | - | - | - |
| 1778105962 | 13.33° C | 89% | 976.6 hPa | 0 mm | - | - | - |
| 1778105032 | 13.33° C | 88% | 977 hPa | 0 mm | - | - | - |
| 1778104102 | 13.33° C | 88% | 976.6 hPa | 0 mm | - | - | - |
| 1778103172 | 13.33° C | 89% | 976 hPa | 0 mm | - | - | - |
* Rain latest hour (hover to see other rain measurements)
** Current wind speed in m/s (hover to see current wind gust speed)